KACT

Waco Regional Airport

Waco, Texas, USA
KACT 170534Z 1706/1806 19010KT P6SM SCT300 FM171500 17011KT P6SM OVC100 FM172100 16010KT P6SM OVC040
Issued Valid From Valid To
Nov-17 @ 05:34 UTC
(3 hours ago)
Nov-17 @ 06:00 UTC
(3 hours ago)
Nov-18 @ 06:00 UTC
(in 21 hours)
Nov-17 @ 06:00 to Nov-17 @ 15:00
KACT 170534Z 1706/1806 19010KT P6SM SCT300
Wind Visibility Clouds
190° at 10 knots Greater than 6 miles
  • Scattered at 30,000' AGL
From Nov-17 @ 15:00 to Nov-17 @ 21:00
FM171500 17011KT P6SM OVC100
Wind Visibility Clouds
170° at 11 knots Greater than 6 miles
  • Overcast at 10,000' AGL
From Nov-17 @ 21:00 to Nov-18 @ 06:00
FM172100 16010KT P6SM OVC040
Wind Visibility Clouds
160° at 10 knots Greater than 6 miles
  • Overcast at 4,000' AGL
KACT 170534Z 1706/1806 19010KT P6SM SCT300 FM171500 17011KT P6SM OVC100 FM172100 16010KT P6SM OVC040
Issued Nov-17 @ 05:34 UTC
(3 hours ago)
Valid From Nov-17 @ 06:00 UTC
(3 hours ago)
Valid To Nov-18 @ 06:00 UTC
(in 21 hours)
Nov-17 @ 06:00 - Nov-17 @ 15:00
Wind Visibility
190° at 10 knots Greater than 6 miles
Clouds
  • Scattered at 30,000' AGL
From Nov-17 @ 15:00 - Nov-17 @ 21:00
Wind Visibility
170° at 11 knots Greater than 6 miles
Clouds
  • Overcast at 10,000' AGL
From Nov-17 @ 21:00 - Nov-18 @ 06:00
Wind Visibility
160° at 10 knots Greater than 6 miles
Clouds
  • Overcast at 4,000' AGL